sensor_id;sensor_type;location;lat;lon;timestamp;P1;durP1;ratioP1;P2;durP2;ratioP2
77012;SDS011;67260;53.130;17.982;2023-05-10T00:00:43;6.40;;;3.50;;
77012;SDS011;67260;53.130;17.982;2023-05-10T00:03:10;5.80;;;3.70;;
77012;SDS011;67260;53.130;17.982;2023-05-10T00:05:36;7.60;;;4.00;;
77012;SDS011;67260;53.130;17.982;2023-05-10T00:08:02;9.00;;;3.70;;
77012;SDS011;67260;53.130;17.982;2023-05-10T00:10:28;6.70;;;3.40;;
77012;SDS011;67260;53.130;17.982;2023-05-10T00:15:21;8.50;;;4.00;;
77012;SDS011;67260;53.130;17.982;2023-05-10T00:17:47;9.70;;;3.90;;
77012;SDS011;67260;53.130;17.982;2023-05-10T00:20:13;6.80;;;3.60;;
77012;SDS011;67260;53.130;17.982;2023-05-10T00:22:39;7.30;;;3.70;;
77012;SDS011;67260;53.130;17.982;2023-05-10T00:25:05;7.30;;;3.40;;
77012;SDS011;67260;53.130;17.982;2023-05-10T00:27:32;7.60;;;3.50;;
77012;SDS011;67260;53.130;17.982;2023-05-10T00:29:58;7.00;;;3.70;;
77012;SDS011;67260;53.130;17.982;2023-05-10T00:32:24;6.40;;;3.30;;
77012;SDS011;67260;53.130;17.982;2023-05-10T00:34:50;7.30;;;2.70;;
77012;SDS011;67260;53.130;17.982;2023-05-10T00:37:17;6.20;;;3.10;;
77012;SDS011;67260;53.130;17.982;2023-05-10T00:39:43;8.10;;;3.50;;
77012;SDS011;67260;53.130;17.982;2023-05-10T00:42:09;6.70;;;3.60;;
77012;SDS011;67260;53.130;17.982;2023-05-10T00:44:35;8.20;;;3.70;;
77012;SDS011;67260;53.130;17.982;2023-05-10T00:47:01;7.00;;;3.30;;
77012;SDS011;67260;53.130;17.982;2023-05-10T00:49:27;6.60;;;3.50;;
77012;SDS011;67260;53.130;17.982;2023-05-10T00:51:54;7.40;;;3.70;;
77012;SDS011;67260;53.130;17.982;2023-05-10T00:54:20;7.90;;;3.60;;
77012;SDS011;67260;53.130;17.982;2023-05-10T00:56:46;6.10;;;3.70;;
77012;SDS011;67260;53.130;17.982;2023-05-10T00:59:18;7.00;;;3.90;;
77012;SDS011;67260;53.130;17.982;2023-05-10T01:01:45;6.10;;;3.00;;
77012;SDS011;67260;53.130;17.982;2023-05-10T01:04:12;6.60;;;3.30;;
77012;SDS011;67260;53.130;17.982;2023-05-10T01:06:39;8.20;;;3.60;;
77012;SDS011;67260;53.130;17.982;2023-05-10T01:09:06;8.20;;;3.50;;
77012;SDS011;67260;53.130;17.982;2023-05-10T01:11:36;6.40;;;3.50;;
77012;SDS011;67260;53.130;17.982;2023-05-10T01:14:03;7.90;;;3.90;;
77012;SDS011;67260;53.130;17.982;2023-05-10T01:16:38;12.40;;;3.70;;
77012;SDS011;67260;53.130;17.982;2023-05-10T01:19:06;8.70;;;3.90;;
77012;SDS011;67260;53.130;17.982;2023-05-10T01:21:58;7.40;;;3.60;;
77012;SDS011;67260;53.130;17.982;2023-05-10T01:32:51;7.10;;;3.40;;
77012;SDS011;67260;53.130;17.982;2023-05-10T01:35:30;9.90;;;3.80;;
77012;SDS011;67260;53.130;17.982;2023-05-10T01:43:08;12.30;;;3.80;;
77012;SDS011;67260;53.130;17.982;2023-05-10T01:46:05;8.10;;;4.00;;
77012;SDS011;67260;53.130;17.982;2023-05-10T01:48:38;6.70;;;4.00;;
77012;SDS011;67260;53.130;17.982;2023-05-10T01:51:17;8.60;;;3.70;;
77012;SDS011;67260;53.130;17.982;2023-05-10T01:53:48;7.90;;;3.70;;
77012;SDS011;67260;53.130;17.982;2023-05-10T01:56:19;8.10;;;4.00;;
77012;SDS011;67260;53.130;17.982;2023-05-10T01:58:51;9.20;;;4.00;;
77012;SDS011;67260;53.130;17.982;2023-05-10T02:01:19;8.40;;;3.20;;
77012;SDS011;67260;53.130;17.982;2023-05-10T02:03:47;7.60;;;3.20;;
77012;SDS011;67260;53.130;17.982;2023-05-10T02:06:18;7.50;;;3.70;;
77012;SDS011;67260;53.130;17.982;2023-05-10T02:08:46;6.60;;;3.70;;
77012;SDS011;67260;53.130;17.982;2023-05-10T02:11:15;12.90;;;4.20;;
77012;SDS011;67260;53.130;17.982;2023-05-10T02:13:43;8.30;;;3.50;;
77012;SDS011;67260;53.130;17.982;2023-05-10T02:16:10;8.90;;;4.20;;
77012;SDS011;67260;53.130;17.982;2023-05-10T02:18:39;6.40;;;2.90;;
77012;SDS011;67260;53.130;17.982;2023-05-10T02:21:07;7.30;;;4.00;;
77012;SDS011;67260;53.130;17.982;2023-05-10T02:23:33;8.80;;;4.20;;
77012;SDS011;67260;53.130;17.982;2023-05-10T02:26:01;7.80;;;4.20;;
77012;SDS011;67260;53.130;17.982;2023-05-10T02:28:29;8.70;;;4.50;;
77012;SDS011;67260;53.130;17.982;2023-05-10T02:30:58;10.50;;;4.10;;
77012;SDS011;67260;53.130;17.982;2023-05-10T02:33:25;10.00;;;4.90;;
77012;SDS011;67260;53.130;17.982;2023-05-10T02:35:52;9.00;;;4.90;;
77012;SDS011;67260;53.130;17.982;2023-05-10T02:38:20;9.90;;;4.40;;
77012;SDS011;67260;53.130;17.982;2023-05-10T02:40:49;8.50;;;4.30;;
77012;SDS011;67260;53.130;17.982;2023-05-10T02:43:16;9.00;;;4.40;;
77012;SDS011;67260;53.130;17.982;2023-05-10T02:45:44;9.10;;;4.50;;
77012;SDS011;67260;53.130;17.982;2023-05-10T02:48:13;8.80;;;4.10;;
77012;SDS011;67260;53.130;17.982;2023-05-10T02:50:42;9.00;;;4.40;;
77012;SDS011;67260;53.130;17.982;2023-05-10T02:53:11;9.60;;;4.30;;
77012;SDS011;67260;53.130;17.982;2023-05-10T02:55:45;10.60;;;4.80;;
77012;SDS011;67260;53.130;17.982;2023-05-10T02:58:17;8.50;;;4.60;;
77012;SDS011;67260;53.130;17.982;2023-05-10T03:00:45;9.70;;;3.80;;
77012;SDS011;67260;53.130;17.982;2023-05-10T03:03:12;10.30;;;4.20;;
77012;SDS011;67260;53.130;17.982;2023-05-10T03:05:38;7.80;;;4.60;;
77012;SDS011;67260;53.130;17.982;2023-05-10T03:08:04;10.10;;;4.50;;
77012;SDS011;67260;53.130;17.982;2023-05-10T03:10:32;8.60;;;4.20;;
77012;SDS011;67260;53.130;17.982;2023-05-10T03:15:58;8.60;;;4.50;;
77012;SDS011;67260;53.130;17.982;2023-05-10T03:18:36;10.50;;;4.20;;
77012;SDS011;67260;53.130;17.982;2023-05-10T03:21:10;10.20;;;4.10;;
77012;SDS011;67260;53.130;17.982;2023-05-10T03:26:11;8.20;;;4.20;;
77012;SDS011;67260;53.130;17.982;2023-05-10T03:28:43;8.30;;;4.30;;
77012;SDS011;67260;53.130;17.982;2023-05-10T03:31:11;7.70;;;4.30;;
77012;SDS011;67260;53.130;17.982;2023-05-10T03:33:46;5.80;;;3.60;;
77012;SDS011;67260;53.130;17.982;2023-05-10T03:36:13;9.00;;;4.40;;
77012;SDS011;67260;53.130;17.982;2023-05-10T03:38:39;9.00;;;4.70;;
77012;SDS011;67260;53.130;17.982;2023-05-10T03:41:05;8.10;;;4.70;;
77012;SDS011;67260;53.130;17.982;2023-05-10T03:43:32;9.00;;;5.00;;
77012;SDS011;67260;53.130;17.982;2023-05-10T03:45:58;8.90;;;4.30;;
77012;SDS011;67260;53.130;17.982;2023-05-10T03:48:24;14.10;;;6.90;;
77012;SDS011;67260;53.130;17.982;2023-05-10T03:50:50;7.40;;;4.10;;
77012;SDS011;67260;53.130;17.982;2023-05-10T03:53:16;8.90;;;4.30;;
77012;SDS011;67260;53.130;17.982;2023-05-10T03:55:42;10.90;;;4.10;;
77012;SDS011;67260;53.130;17.982;2023-05-10T03:58:10;8.10;;;4.30;;
77012;SDS011;67260;53.130;17.982;2023-05-10T04:00:37;6.50;;;3.70;;
77012;SDS011;67260;53.130;17.982;2023-05-10T04:03:09;7.30;;;4.10;;
77012;SDS011;67260;53.130;17.982;2023-05-10T04:08:02;9.50;;;4.20;;
77012;SDS011;67260;53.130;17.982;2023-05-10T04:10:29;8.70;;;4.60;;
77012;SDS011;67260;53.130;17.982;2023-05-10T04:12:55;8.30;;;4.20;;
77012;SDS011;67260;53.130;17.982;2023-05-10T04:15:22;7.60;;;4.30;;
77012;SDS011;67260;53.130;17.982;2023-05-10T04:17:48;11.00;;;4.30;;
77012;SDS011;67260;53.130;17.982;2023-05-10T04:22:40;9.30;;;3.90;;
77012;SDS011;67260;53.130;17.982;2023-05-10T04:25:06;7.80;;;4.00;;
77012;SDS011;67260;53.130;17.982;2023-05-10T04:27:33;8.40;;;4.50;;
77012;SDS011;67260;53.130;17.982;2023-05-10T04:29:59;12.10;;;4.40;;
77012;SDS011;67260;53.130;17.982;2023-05-10T04:32:25;7.70;;;4.20;;
77012;SDS011;67260;53.130;17.982;2023-05-10T04:34:51;8.30;;;4.00;;
77012;SDS011;67260;53.130;17.982;2023-05-10T04:37:17;10.20;;;4.20;;
77012;SDS011;67260;53.130;17.982;2023-05-10T04:39:43;7.10;;;4.10;;
77012;SDS011;67260;53.130;17.982;2023-05-10T04:42:09;7.30;;;4.30;;
77012;SDS011;67260;53.130;17.982;2023-05-10T04:44:36;8.20;;;4.20;;
77012;SDS011;67260;53.130;17.982;2023-05-10T04:47:02;8.70;;;4.30;;
77012;SDS011;67260;53.130;17.982;2023-05-10T04:49:28;7.60;;;4.00;;
77012;SDS011;67260;53.130;17.982;2023-05-10T04:51:55;6.90;;;4.10;;
77012;SDS011;67260;53.130;17.982;2023-05-10T04:54:22;6.60;;;3.90;;
77012;SDS011;67260;53.130;17.982;2023-05-10T04:56:49;6.90;;;3.70;;
77012;SDS011;67260;53.130;17.982;2023-05-10T04:59:15;8.40;;;4.60;;
77012;SDS011;67260;53.130;17.982;2023-05-10T05:04:07;10.80;;;3.90;;
77012;SDS011;67260;53.130;17.982;2023-05-10T05:06:33;7.30;;;4.40;;
77012;SDS011;67260;53.130;17.982;2023-05-10T05:11:25;8.30;;;4.10;;
77012;SDS011;67260;53.130;17.982;2023-05-10T05:13:51;9.50;;;4.40;;
77012;SDS011;67260;53.130;17.982;2023-05-10T05:16:17;10.80;;;3.90;;
77012;SDS011;67260;53.130;17.982;2023-05-10T05:18:43;8.20;;;3.90;;
77012;SDS011;67260;53.130;17.982;2023-05-10T05:21:15;7.60;;;4.40;;
77012;SDS011;67260;53.130;17.982;2023-05-10T05:23:43;8.00;;;3.90;;
77012;SDS011;67260;53.130;17.982;2023-05-10T05:26:10;8.50;;;3.50;;
77012;SDS011;67260;53.130;17.982;2023-05-10T05:28:36;9.70;;;4.10;;
77012;SDS011;67260;53.130;17.982;2023-05-10T05:31:03;7.10;;;3.30;;
77012;SDS011;67260;53.130;17.982;2023-05-10T05:33:31;8.40;;;3.80;;
77012;SDS011;67260;53.130;17.982;2023-05-10T05:35:59;8.10;;;3.40;;
77012;SDS011;67260;53.130;17.982;2023-05-10T05:38:28;8.00;;;3.50;;
77012;SDS011;67260;53.130;17.982;2023-05-10T05:40:54;11.00;;;3.50;;
77012;SDS011;67260;53.130;17.982;2023-05-10T05:43:20;9.30;;;3.60;;
77012;SDS011;67260;53.130;17.982;2023-05-10T05:45:46;8.10;;;3.20;;
77012;SDS011;67260;53.130;17.982;2023-05-10T05:48:12;7.60;;;2.80;;
77012;SDS011;67260;53.130;17.982;2023-05-10T05:50:38;6.10;;;3.00;;
77012;SDS011;67260;53.130;17.982;2023-05-10T05:53:04;9.50;;;3.20;;
77012;SDS011;67260;53.130;17.982;2023-05-10T05:55:30;6.70;;;2.70;;
77012;SDS011;67260;53.130;17.982;2023-05-10T05:57:57;7.10;;;2.90;;
77012;SDS011;67260;53.130;17.982;2023-05-10T06:00:24;6.20;;;2.80;;
77012;SDS011;67260;53.130;17.982;2023-05-10T06:02:50;8.00;;;2.90;;
77012;SDS011;67260;53.130;17.982;2023-05-10T06:05:16;6.10;;;2.90;;
77012;SDS011;67260;53.130;17.982;2023-05-10T06:07:42;5.80;;;2.90;;
77012;SDS011;67260;53.130;17.982;2023-05-10T06:10:08;5.20;;;2.60;;
77012;SDS011;67260;53.130;17.982;2023-05-10T06:12:34;8.30;;;2.90;;
77012;SDS011;67260;53.130;17.982;2023-05-10T06:15:01;5.40;;;2.50;;
77012;SDS011;67260;53.130;17.982;2023-05-10T06:17:29;4.80;;;2.60;;
77012;SDS011;67260;53.130;17.982;2023-05-10T06:19:56;5.10;;;2.90;;
77012;SDS011;67260;53.130;17.982;2023-05-10T06:22:22;5.60;;;2.50;;
77012;SDS011;67260;53.130;17.982;2023-05-10T06:24:48;6.30;;;2.60;;
77012;SDS011;67260;53.130;17.982;2023-05-10T06:27:15;4.70;;;2.50;;
77012;SDS011;67260;53.130;17.982;2023-05-10T06:29:41;7.50;;;2.20;;
77012;SDS011;67260;53.130;17.982;2023-05-10T06:32:07;10.10;;;2.80;;
77012;SDS011;67260;53.130;17.982;2023-05-10T06:34:33;7.80;;;2.90;;
77012;SDS011;67260;53.130;17.982;2023-05-10T06:36:59;5.80;;;2.30;;
77012;SDS011;67260;53.130;17.982;2023-05-10T06:39:25;6.40;;;2.70;;
77012;SDS011;67260;53.130;17.982;2023-05-10T06:41:51;9.30;;;2.60;;
77012;SDS011;67260;53.130;17.982;2023-05-10T06:44:18;7.70;;;2.40;;
77012;SDS011;67260;53.130;17.982;2023-05-10T06:46:44;5.70;;;2.50;;
77012;SDS011;67260;53.130;17.982;2023-05-10T06:49:10;7.40;;;2.50;;
77012;SDS011;67260;53.130;17.982;2023-05-10T06:51:36;6.30;;;2.60;;
77012;SDS011;67260;53.130;17.982;2023-05-10T06:54:03;7.60;;;2.50;;
77012;SDS011;67260;53.130;17.982;2023-05-10T06:56:32;7.60;;;2.30;;
77012;SDS011;67260;53.130;17.982;2023-05-10T06:58:58;7.10;;;2.20;;
77012;SDS011;67260;53.130;17.982;2023-05-10T07:01:24;5.80;;;2.50;;
77012;SDS011;67260;53.130;17.982;2023-05-10T07:03:50;6.10;;;2.40;;
77012;SDS011;67260;53.130;17.982;2023-05-10T07:06:16;8.60;;;2.30;;
77012;SDS011;67260;53.130;17.982;2023-05-10T07:08:42;6.00;;;2.40;;
77012;SDS011;67260;53.130;17.982;2023-05-10T07:11:08;7.10;;;2.40;;
77012;SDS011;67260;53.130;17.982;2023-05-10T07:13:34;5.10;;;2.50;;
77012;SDS011;67260;53.130;17.982;2023-05-10T07:16:02;7.00;;;2.10;;
77012;SDS011;67260;53.130;17.982;2023-05-10T07:18:28;4.40;;;2.20;;
77012;SDS011;67260;53.130;17.982;2023-05-10T07:20:54;4.90;;;2.10;;
77012;SDS011;67260;53.130;17.982;2023-05-10T07:23:20;7.30;;;2.40;;
77012;SDS011;67260;53.130;17.982;2023-05-10T07:25:47;6.80;;;2.10;;
77012;SDS011;67260;53.130;17.982;2023-05-10T07:28:14;8.10;;;2.10;;
77012;SDS011;67260;53.130;17.982;2023-05-10T07:30:42;7.40;;;2.50;;
77012;SDS011;67260;53.130;17.982;2023-05-10T07:33:10;6.30;;;2.10;;
77012;SDS011;67260;53.130;17.982;2023-05-10T07:35:38;7.80;;;2.40;;
77012;SDS011;67260;53.130;17.982;2023-05-10T07:38:04;5.10;;;2.10;;
77012;SDS011;67260;53.130;17.982;2023-05-10T07:40:31;4.50;;;2.10;;
77012;SDS011;67260;53.130;17.982;2023-05-10T07:42:57;5.60;;;1.90;;
77012;SDS011;67260;53.130;17.982;2023-05-10T07:45:23;4.00;;;2.20;;
77012;SDS011;67260;53.130;17.982;2023-05-10T07:47:50;5.90;;;2.20;;
77012;SDS011;67260;53.130;17.982;2023-05-10T07:50:16;6.20;;;2.30;;
77012;SDS011;67260;53.130;17.982;2023-05-10T07:52:42;10.80;;;2.50;;
77012;SDS011;67260;53.130;17.982;2023-05-10T07:55:08;8.00;;;2.20;;
77012;SDS011;67260;53.130;17.982;2023-05-10T07:57:35;5.60;;;2.10;;
77012;SDS011;67260;53.130;17.982;2023-05-10T08:00:01;10.90;;;2.20;;
77012;SDS011;67260;53.130;17.982;2023-05-10T08:02:27;6.60;;;2.10;;
77012;SDS011;67260;53.130;17.982;2023-05-10T08:04:53;5.80;;;2.40;;
77012;SDS011;67260;53.130;17.982;2023-05-10T08:07:21;6.40;;;2.10;;
77012;SDS011;67260;53.130;17.982;2023-05-10T08:09:48;7.90;;;2.20;;
77012;SDS011;67260;53.130;17.982;2023-05-10T08:12:14;6.00;;;2.10;;
77012;SDS011;67260;53.130;17.982;2023-05-10T08:14:40;7.30;;;2.30;;
77012;SDS011;67260;53.130;17.982;2023-05-10T08:17:06;4.90;;;2.00;;
77012;SDS011;67260;53.130;17.982;2023-05-10T08:19:32;3.30;;;1.80;;
77012;SDS011;67260;53.130;17.982;2023-05-10T08:21:58;5.60;;;1.90;;
77012;SDS011;67260;53.130;17.982;2023-05-10T08:24:28;5.70;;;1.90;;
77012;SDS011;67260;53.130;17.982;2023-05-10T08:26:54;9.20;;;2.20;;
77012;SDS011;67260;53.130;17.982;2023-05-10T08:29:20;7.00;;;2.30;;
77012;SDS011;67260;53.130;17.982;2023-05-10T08:31:46;5.60;;;2.00;;
77012;SDS011;67260;53.130;17.982;2023-05-10T08:34:12;6.80;;;2.20;;
77012;SDS011;67260;53.130;17.982;2023-05-10T08:36:38;5.50;;;2.10;;
77012;SDS011;67260;53.130;17.982;2023-05-10T08:39:04;5.80;;;2.00;;
77012;SDS011;67260;53.130;17.982;2023-05-10T08:41:30;7.10;;;2.00;;
77012;SDS011;67260;53.130;17.982;2023-05-10T08:44:00;5.40;;;1.90;;
77012;SDS011;67260;53.130;17.982;2023-05-10T08:46:34;6.60;;;2.00;;
77012;SDS011;67260;53.130;17.982;2023-05-10T08:49:06;5.90;;;2.10;;
77012;SDS011;67260;53.130;17.982;2023-05-10T08:51:35;7.50;;;1.90;;
77012;SDS011;67260;53.130;17.982;2023-05-10T08:54:03;10.30;;;2.60;;
77012;SDS011;67260;53.130;17.982;2023-05-10T08:56:30;5.20;;;1.90;;
77012;SDS011;67260;53.130;17.982;2023-05-10T08:58:56;6.50;;;2.30;;
77012;SDS011;67260;53.130;17.982;2023-05-10T09:01:23;6.20;;;2.30;;
77012;SDS011;67260;53.130;17.982;2023-05-10T09:03:51;7.30;;;2.00;;
77012;SDS011;67260;53.130;17.982;2023-05-10T09:06:17;8.30;;;2.20;;
77012;SDS011;67260;53.130;17.982;2023-05-10T09:08:43;4.70;;;2.10;;
77012;SDS011;67260;53.130;17.982;2023-05-10T09:11:11;7.50;;;2.10;;
77012;SDS011;67260;53.130;17.982;2023-05-10T09:13:38;7.90;;;1.90;;
77012;SDS011;67260;53.130;17.982;2023-05-10T09:16:05;7.70;;;2.30;;
77012;SDS011;67260;53.130;17.982;2023-05-10T09:18:31;5.70;;;2.00;;
77012;SDS011;67260;53.130;17.982;2023-05-10T09:20:57;5.00;;;1.80;;
77012;SDS011;67260;53.130;17.982;2023-05-10T09:23:23;4.20;;;1.80;;
77012;SDS011;67260;53.130;17.982;2023-05-10T09:26:05;6.50;;;2.00;;
77012;SDS011;67260;53.130;17.982;2023-05-10T09:31:16;11.50;;;2.00;;
77012;SDS011;67260;53.130;17.982;2023-05-10T09:33:46;8.10;;;2.00;;
77012;SDS011;67260;53.130;17.982;2023-05-10T09:36:14;5.50;;;2.20;;
77012;SDS011;67260;53.130;17.982;2023-05-10T09:38:48;6.30;;;2.00;;
77012;SDS011;67260;53.130;17.982;2023-05-10T09:41:20;9.30;;;2.00;;
77012;SDS011;67260;53.130;17.982;2023-05-10T09:43:47;4.60;;;2.20;;
77012;SDS011;67260;53.130;17.982;2023-05-10T09:46:14;7.00;;;3.60;;
77012;SDS011;67260;53.130;17.982;2023-05-10T09:48:48;5.00;;;2.00;;
77012;SDS011;67260;53.130;17.982;2023-05-10T09:53:47;8.90;;;1.80;;
77012;SDS011;67260;53.130;17.982;2023-05-10T09:56:32;7.00;;;2.20;;
77012;SDS011;67260;53.130;17.982;2023-05-10T09:59:04;6.10;;;2.40;;
77012;SDS011;67260;53.130;17.982;2023-05-10T10:01:31;6.90;;;2.50;;
77012;SDS011;67260;53.130;17.982;2023-05-10T10:03:57;8.30;;;2.70;;
77012;SDS011;67260;53.130;17.982;2023-05-10T10:06:24;5.30;;;2.00;;
77012;SDS011;67260;53.130;17.982;2023-05-10T10:08:52;8.40;;;2.10;;
77012;SDS011;67260;53.130;17.982;2023-05-10T10:11:20;9.60;;;2.30;;
77012;SDS011;67260;53.130;17.982;2023-05-10T10:13:46;7.90;;;2.50;;
77012;SDS011;67260;53.130;17.982;2023-05-10T10:16:12;15.40;;;6.30;;
77012;SDS011;67260;53.130;17.982;2023-05-10T10:18:38;13.00;;;6.50;;
77012;SDS011;67260;53.130;17.982;2023-05-10T10:21:05;6.30;;;3.60;;
77012;SDS011;67260;53.130;17.982;2023-05-10T10:23:36;8.60;;;3.60;;
77012;SDS011;67260;53.130;17.982;2023-05-10T10:26:05;10.40;;;4.40;;
77012;SDS011;67260;53.130;17.982;2023-05-10T10:31:28;8.60;;;2.10;;
77012;SDS011;67260;53.130;17.982;2023-05-10T10:34:05;6.30;;;2.20;;
77012;SDS011;67260;53.130;17.982;2023-05-10T10:36:40;9.60;;;3.20;;
77012;SDS011;67260;53.130;17.982;2023-05-10T10:39:12;10.40;;;2.20;;
77012;SDS011;67260;53.130;17.982;2023-05-10T10:41:39;8.90;;;2.00;;
77012;SDS011;67260;53.130;17.982;2023-05-10T10:52:13;8.60;;;2.30;;
77012;SDS011;67260;53.130;17.982;2023-05-10T10:54:40;8.90;;;2.60;;
77012;SDS011;67260;53.130;17.982;2023-05-10T10:57:13;7.30;;;2.30;;
77012;SDS011;67260;53.130;17.982;2023-05-10T10:59:43;6.20;;;2.30;;
77012;SDS011;67260;53.130;17.982;2023-05-10T11:02:09;9.80;;;2.50;;
77012;SDS011;67260;53.130;17.982;2023-05-10T11:04:42;7.10;;;2.30;;
77012;SDS011;67260;53.130;17.982;2023-05-10T11:07:18;7.10;;;2.30;;
77012;SDS011;67260;53.130;17.982;2023-05-10T11:09:49;8.90;;;2.90;;
77012;SDS011;67260;53.130;17.982;2023-05-10T11:12:15;7.70;;;2.50;;
77012;SDS011;67260;53.130;17.982;2023-05-10T11:14:42;6.20;;;2.40;;
77012;SDS011;67260;53.130;17.982;2023-05-10T11:17:24;7.50;;;2.30;;
77012;SDS011;67260;53.130;17.982;2023-05-10T11:20:08;8.10;;;2.30;;
77012;SDS011;67260;53.130;17.982;2023-05-10T11:22:49;7.50;;;2.50;;
77012;SDS011;67260;53.130;17.982;2023-05-10T11:25:19;8.70;;;2.40;;
77012;SDS011;67260;53.130;17.982;2023-05-10T11:27:48;5.40;;;2.40;;
77012;SDS011;67260;53.130;17.982;2023-05-10T11:30:17;7.20;;;2.50;;
77012;SDS011;67260;53.130;17.982;2023-05-10T11:32:43;9.00;;;2.40;;
77012;SDS011;67260;53.130;17.982;2023-05-10T11:35:10;9.40;;;2.40;;
77012;SDS011;67260;53.130;17.982;2023-05-10T11:37:38;6.90;;;2.10;;
77012;SDS011;67260;53.130;17.982;2023-05-10T11:40:09;10.10;;;2.90;;
77012;SDS011;67260;53.130;17.982;2023-05-10T11:42:36;8.40;;;2.70;;
77012;SDS011;67260;53.130;17.982;2023-05-10T11:45:04;10.70;;;2.80;;
77012;SDS011;67260;53.130;17.982;2023-05-10T11:47:38;10.30;;;3.10;;
77012;SDS011;67260;53.130;17.982;2023-05-10T11:50:05;9.10;;;2.90;;
77012;SDS011;67260;53.130;17.982;2023-05-10T11:52:35;10.60;;;2.50;;
77012;SDS011;67260;53.130;17.982;2023-05-10T11:55:04;18.30;;;3.50;;
77012;SDS011;67260;53.130;17.982;2023-05-10T11:57:32;12.40;;;2.70;;
77012;SDS011;67260;53.130;17.982;2023-05-10T11:59:58;9.60;;;2.10;;
77012;SDS011;67260;53.130;17.982;2023-05-10T12:02:25;14.20;;;2.20;;
77012;SDS011;67260;53.130;17.982;2023-05-10T12:04:51;8.10;;;2.70;;
77012;SDS011;67260;53.130;17.982;2023-05-10T12:07:18;9.20;;;2.60;;
77012;SDS011;67260;53.130;17.982;2023-05-10T12:09:44;7.00;;;2.20;;
77012;SDS011;67260;53.130;17.982;2023-05-10T12:12:34;7.40;;;2.20;;
77012;SDS011;67260;53.130;17.982;2023-05-10T12:15:32;13.20;;;2.30;;
77012;SDS011;67260;53.130;17.982;2023-05-10T12:18:01;5.90;;;2.10;;
77012;SDS011;67260;53.130;17.982;2023-05-10T12:20:38;7.60;;;2.40;;
77012;SDS011;67260;53.130;17.982;2023-05-10T12:23:05;9.70;;;2.60;;
77012;SDS011;67260;53.130;17.982;2023-05-10T12:25:35;13.40;;;2.70;;
77012;SDS011;67260;53.130;17.982;2023-05-10T12:28:03;9.70;;;2.60;;
77012;SDS011;67260;53.130;17.982;2023-05-10T12:30:33;6.60;;;2.40;;
77012;SDS011;67260;53.130;17.982;2023-05-10T12:33:02;8.40;;;2.20;;
77012;SDS011;67260;53.130;17.982;2023-05-10T12:35:42;10.10;;;2.30;;
77012;SDS011;67260;53.130;17.982;2023-05-10T12:38:44;7.90;;;2.10;;
77012;SDS011;67260;53.130;17.982;2023-05-10T12:41:10;6.20;;;2.10;;
77012;SDS011;67260;53.130;17.982;2023-05-10T12:43:40;8.50;;;2.20;;
77012;SDS011;67260;53.130;17.982;2023-05-10T12:46:07;11.20;;;2.10;;
77012;SDS011;67260;53.130;17.982;2023-05-10T12:48:35;10.90;;;2.60;;
77012;SDS011;67260;53.130;17.982;2023-05-10T12:51:03;8.60;;;2.70;;
77012;SDS011;67260;53.130;17.982;2023-05-10T12:53:30;5.00;;;2.20;;
77012;SDS011;67260;53.130;17.982;2023-05-10T12:55:58;7.70;;;2.40;;
77012;SDS011;67260;53.130;17.982;2023-05-10T12:58:24;7.80;;;2.30;;
77012;SDS011;67260;53.130;17.982;2023-05-10T13:00:57;10.00;;;2.70;;
77012;SDS011;67260;53.130;17.982;2023-05-10T13:03:30;7.60;;;2.60;;
77012;SDS011;67260;53.130;17.982;2023-05-10T13:05:56;12.10;;;2.40;;
77012;SDS011;67260;53.130;17.982;2023-05-10T13:08:23;10.00;;;2.20;;
77012;SDS011;67260;53.130;17.982;2023-05-10T13:10:49;5.70;;;2.40;;
77012;SDS011;67260;53.130;17.982;2023-05-10T13:13:15;8.30;;;2.60;;
77012;SDS011;67260;53.130;17.982;2023-05-10T13:15:44;9.80;;;2.40;;
77012;SDS011;67260;53.130;17.982;2023-05-10T13:18:13;12.90;;;2.60;;
77012;SDS011;67260;53.130;17.982;2023-05-10T13:20:39;7.30;;;2.50;;
77012;SDS011;67260;53.130;17.982;2023-05-10T13:23:06;9.00;;;2.40;;
77012;SDS011;67260;53.130;17.982;2023-05-10T13:25:33;10.60;;;2.70;;
77012;SDS011;67260;53.130;17.982;2023-05-10T13:28:00;8.90;;;2.20;;
77012;SDS011;67260;53.130;17.982;2023-05-10T13:30:26;5.50;;;2.40;;
77012;SDS011;67260;53.130;17.982;2023-05-10T13:32:51;10.90;;;2.40;;
77012;SDS011;67260;53.130;17.982;2023-05-10T13:35:18;10.30;;;2.70;;
77012;SDS011;67260;53.130;17.982;2023-05-10T13:37:45;6.50;;;2.80;;
77012;SDS011;67260;53.130;17.982;2023-05-10T13:40:12;8.40;;;2.80;;
77012;SDS011;67260;53.130;17.982;2023-05-10T13:42:41;6.70;;;2.60;;
77012;SDS011;67260;53.130;17.982;2023-05-10T13:45:13;7.70;;;2.60;;
77012;SDS011;67260;53.130;17.982;2023-05-10T13:47:42;7.60;;;2.30;;
77012;SDS011;67260;53.130;17.982;2023-05-10T13:50:10;10.10;;;2.70;;
77012;SDS011;67260;53.130;17.982;2023-05-10T13:52:49;8.70;;;2.70;;
77012;SDS011;67260;53.130;17.982;2023-05-10T13:55:16;7.60;;;2.40;;
77012;SDS011;67260;53.130;17.982;2023-05-10T14:00:09;7.10;;;2.60;;
77012;SDS011;67260;53.130;17.982;2023-05-10T14:02:36;6.40;;;2.70;;
77012;SDS011;67260;53.130;17.982;2023-05-10T14:05:02;9.00;;;2.50;;
77012;SDS011;67260;53.130;17.982;2023-05-10T14:07:30;6.70;;;2.40;;
77012;SDS011;67260;53.130;17.982;2023-05-10T14:10:00;10.50;;;2.50;;
77012;SDS011;67260;53.130;17.982;2023-05-10T14:12:27;10.40;;;2.40;;
77012;SDS011;67260;53.130;17.982;2023-05-10T14:14:53;10.00;;;2.80;;
77012;SDS011;67260;53.130;17.982;2023-05-10T14:17:24;6.10;;;2.20;;
77012;SDS011;67260;53.130;17.982;2023-05-10T14:19:50;8.00;;;2.50;;
77012;SDS011;67260;53.130;17.982;2023-05-10T14:22:17;7.40;;;2.80;;
77012;SDS011;67260;53.130;17.982;2023-05-10T14:24:49;7.40;;;2.50;;
77012;SDS011;67260;53.130;17.982;2023-05-10T14:29:41;8.10;;;2.50;;
77012;SDS011;67260;53.130;17.982;2023-05-10T14:32:09;5.20;;;2.50;;
77012;SDS011;67260;53.130;17.982;2023-05-10T14:34:39;8.00;;;2.60;;
77012;SDS011;67260;53.130;17.982;2023-05-10T14:37:05;9.40;;;2.80;;
77012;SDS011;67260;53.130;17.982;2023-05-10T14:39:31;6.60;;;2.60;;
77012;SDS011;67260;53.130;17.982;2023-05-10T14:41:58;5.50;;;2.20;;
77012;SDS011;67260;53.130;17.982;2023-05-10T14:44:24;12.90;;;2.70;;
77012;SDS011;67260;53.130;17.982;2023-05-10T14:46:50;6.40;;;2.30;;
77012;SDS011;67260;53.130;17.982;2023-05-10T14:49:19;8.00;;;2.50;;
77012;SDS011;67260;53.130;17.982;2023-05-10T14:51:48;5.80;;;2.60;;
77012;SDS011;67260;53.130;17.982;2023-05-10T14:56:41;8.30;;;2.70;;
77012;SDS011;67260;53.130;17.982;2023-05-10T14:59:07;7.70;;;2.70;;
77012;SDS011;67260;53.130;17.982;2023-05-10T15:04:03;5.60;;;2.20;;
77012;SDS011;67260;53.130;17.982;2023-05-10T15:06:30;6.70;;;2.50;;
77012;SDS011;67260;53.130;17.982;2023-05-10T15:08:57;6.10;;;3.00;;
77012;SDS011;67260;53.130;17.982;2023-05-10T15:11:23;9.30;;;2.60;;
77012;SDS011;67260;53.130;17.982;2023-05-10T15:13:49;9.10;;;2.90;;
77012;SDS011;67260;53.130;17.982;2023-05-10T15:16:15;9.60;;;3.20;;
77012;SDS011;67260;53.130;17.982;2023-05-10T15:18:42;7.20;;;2.70;;
77012;SDS011;67260;53.130;17.982;2023-05-10T15:21:09;10.50;;;2.80;;
77012;SDS011;67260;53.130;17.982;2023-05-10T15:23:35;8.40;;;2.70;;
77012;SDS011;67260;53.130;17.982;2023-05-10T15:26:02;7.60;;;2.70;;
77012;SDS011;67260;53.130;17.982;2023-05-10T15:28:28;6.00;;;2.30;;
77012;SDS011;67260;53.130;17.982;2023-05-10T15:33:25;4.90;;;2.40;;
77012;SDS011;67260;53.130;17.982;2023-05-10T15:35:55;5.50;;;2.50;;
77012;SDS011;67260;53.130;17.982;2023-05-10T15:38:21;7.40;;;2.60;;